createdAt,value
2017-12-13T00:00:49.765Z,6.37
2017-12-13T00:02:53.210Z,6.27
2017-12-13T00:04:56.633Z,6.30
2017-12-13T00:07:01.557Z,5.60
2017-12-13T00:09:05.013Z,5.97
2017-12-13T00:11:08.492Z,5.90
2017-12-13T00:13:11.920Z,6.30
2017-12-13T00:15:15.345Z,6.97
2017-12-13T00:17:18.804Z,5.83
2017-12-13T00:19:22.216Z,6.10
2017-12-13T00:21:25.671Z,5.40
2017-12-13T00:23:29.136Z,5.47
2017-12-13T00:25:33.309Z,4.97
2017-12-13T00:27:36.803Z,5.60
2017-12-13T00:29:40.226Z,6.20
2017-12-13T00:31:43.630Z,5.00
2017-12-13T00:33:47.838Z,5.50
2017-12-13T00:35:51.242Z,5.27
2017-12-13T00:37:55.444Z,4.73
2017-12-13T00:39:59.619Z,5.13
2017-12-13T00:42:03.050Z,5.20
2017-12-13T00:44:07.946Z,5.60
2017-12-13T00:46:11.379Z,5.40
2017-12-13T00:48:14.837Z,5.23
2017-12-13T00:50:18.252Z,5.60
2017-12-13T00:52:21.705Z,5.83
2017-12-13T00:54:25.158Z,6.20
2017-12-13T00:56:28.595Z,4.97
2017-12-13T00:58:32.032Z,5.00
2017-12-13T01:00:36.312Z,6.10
2017-12-13T01:02:39.741Z,6.30
2017-12-13T01:04:43.188Z,5.30
2017-12-13T01:06:46.634Z,5.27
2017-12-13T01:08:50.051Z,4.90
2017-12-13T01:10:53.526Z,5.20
2017-12-13T01:12:56.941Z,5.30
2017-12-13T01:15:00.412Z,4.40
2017-12-13T01:17:03.853Z,4.40
2017-12-13T01:19:07.322Z,5.40
2017-12-13T01:21:10.796Z,4.33
2017-12-13T01:23:14.253Z,5.40
2017-12-13T01:25:17.687Z,5.53
2017-12-13T01:27:21.149Z,5.13
2017-12-13T01:29:24.581Z,5.40
2017-12-13T01:31:28.242Z,4.97
2017-12-13T01:33:32.485Z,5.60
2017-12-13T01:35:35.914Z,5.43
2017-12-13T01:37:39.381Z,4.90
2017-12-13T01:39:42.779Z,5.50
2017-12-13T01:41:46.259Z,5.40
2017-12-13T01:43:49.662Z,5.40
2017-12-13T01:45:53.073Z,5.30
2017-12-13T01:47:56.519Z,5.37
2017-12-13T01:50:00.715Z,5.27
2017-12-13T01:52:04.175Z,5.97
2017-12-13T01:54:07.620Z,5.53
2017-12-13T01:56:11.065Z,5.87
2017-12-13T01:58:14.539Z,5.43
2017-12-13T02:00:18.118Z,7.57
2017-12-13T02:02:21.637Z,5.87
2017-12-13T02:04:25.094Z,5.90
2017-12-13T02:06:28.593Z,6.10
2017-12-13T02:08:32.076Z,6.60
2017-12-13T02:10:36.259Z,5.90
2017-12-13T02:12:39.709Z,6.60
2017-12-13T02:14:43.135Z,6.20
2017-12-13T02:16:46.591Z,5.53
2017-12-13T02:18:50.032Z,5.27
2017-12-13T02:20:53.504Z,5.70
2017-12-13T02:22:56.979Z,6.10
2017-12-13T02:25:00.399Z,6.03
2017-12-13T02:27:03.865Z,6.03
2017-12-13T02:29:07.332Z,5.87
2017-12-13T02:31:10.778Z,6.17
2017-12-13T02:33:14.978Z,6.10
2017-12-13T02:35:18.431Z,6.13
2017-12-13T02:37:22.617Z,6.13
2017-12-13T02:39:26.056Z,5.57
2017-12-13T02:41:29.476Z,6.10
2017-12-13T02:43:32.885Z,5.90
2017-12-13T02:45:36.306Z,5.50
2017-12-13T02:47:40.482Z,5.90
2017-12-13T02:49:43.956Z,5.77
2017-12-13T02:51:47.401Z,5.67
2017-12-13T02:53:51.609Z,4.80
2017-12-13T02:55:55.061Z,5.20
2017-12-13T02:57:59.318Z,5.30
2017-12-13T03:00:02.782Z,5.17
2017-12-13T03:02:06.266Z,5.50
2017-12-13T03:04:09.674Z,5.73
2017-12-13T03:06:13.960Z,5.40
2017-12-13T03:08:17.402Z,5.83
2017-12-13T03:10:20.883Z,4.60
2017-12-13T03:12:24.368Z,5.00
2017-12-13T03:14:27.837Z,4.90
2017-12-13T03:16:31.343Z,4.10
2017-12-13T03:18:34.797Z,5.10
2017-12-13T03:20:38.253Z,5.07
2017-12-13T03:22:41.753Z,5.77
2017-12-13T03:24:45.975Z,4.67
2017-12-13T03:26:50.228Z,4.60
2017-12-13T03:28:53.671Z,4.40
2017-12-13T03:30:57.969Z,6.93
2017-12-13T03:33:01.404Z,4.50
2017-12-13T03:35:05.597Z,4.53
2017-12-13T03:37:09.058Z,5.00
2017-12-13T03:39:12.469Z,4.90
2017-12-13T03:41:15.915Z,4.67
2017-12-13T03:43:19.323Z,4.13
2017-12-13T03:45:22.732Z,4.43
2017-12-13T03:47:26.187Z,4.40
2017-12-13T03:49:29.582Z,3.90
2017-12-13T03:51:33.745Z,4.70
2017-12-13T03:53:37.190Z,4.93
2017-12-13T03:55:40.615Z,4.30
2017-12-13T03:57:44.062Z,4.27
2017-12-13T03:59:47.493Z,4.77
2017-12-13T04:01:50.905Z,4.90
2017-12-13T04:03:55.203Z,4.20
2017-12-13T04:05:58.646Z,4.60
2017-12-13T04:08:02.912Z,4.23
2017-12-13T04:10:06.355Z,4.40
2017-12-13T04:12:10.540Z,4.70
2017-12-13T04:14:13.974Z,4.30
2017-12-13T04:16:18.143Z,4.87
2017-12-13T04:18:21.616Z,4.47
2017-12-13T04:20:25.014Z,4.57
2017-12-13T04:22:28.420Z,4.00
2017-12-13T04:24:31.959Z,4.93
2017-12-13T04:26:35.412Z,4.57
2017-12-13T04:28:38.848Z,5.10
2017-12-13T04:30:42.297Z,4.83
2017-12-13T04:32:45.727Z,4.33
2017-12-13T04:34:49.172Z,6.00
2017-12-13T04:36:52.580Z,5.10
2017-12-13T04:38:56.061Z,4.83
2017-12-13T04:40:59.475Z,4.43
2017-12-13T04:43:03.795Z,5.93
2017-12-13T04:45:07.285Z,4.73
2017-12-13T04:47:10.709Z,5.43
2017-12-13T04:49:14.174Z,5.27
2017-12-13T04:51:17.605Z,4.90
2017-12-13T04:53:21.023Z,5.90
2017-12-13T04:55:24.524Z,4.50
2017-12-13T04:57:27.953Z,4.93
2017-12-13T04:59:32.173Z,5.57
2017-12-13T05:01:36.384Z,5.67
2017-12-13T05:03:39.783Z,4.57
2017-12-13T05:05:43.996Z,4.37
2017-12-13T05:07:47.437Z,4.23
2017-12-13T05:09:50.859Z,4.93
2017-12-13T05:11:55.121Z,4.50
2017-12-13T05:13:58.666Z,5.23
2017-12-13T05:16:02.386Z,7.90
2017-12-13T05:18:06.698Z,5.60
2017-12-13T05:20:10.939Z,6.00
2017-12-13T05:22:14.437Z,5.53
2017-12-13T05:24:17.939Z,6.50
2017-12-13T05:26:21.429Z,7.50
2017-12-13T05:28:24.891Z,5.33
2017-12-13T05:30:29.086Z,7.57
2017-12-13T05:32:32.614Z,6.43
2017-12-13T05:34:36.041Z,5.63
2017-12-13T05:36:39.487Z,5.97
2017-12-13T05:38:43.701Z,4.73
2017-12-13T05:40:47.159Z,5.33
2017-12-13T05:42:50.614Z,5.50
2017-12-13T05:44:54.096Z,5.07
2017-12-13T05:46:57.540Z,4.73
2017-12-13T05:49:00.979Z,4.83
2017-12-13T05:51:04.541Z,5.10
2017-12-13T05:53:08.078Z,6.90
2017-12-13T05:55:11.514Z,5.47
2017-12-13T05:57:14.994Z,4.83
2017-12-13T05:59:18.540Z,5.50
2017-12-13T06:01:22.738Z,5.50
2017-12-13T06:03:27.803Z,5.13
2017-12-13T06:05:32.024Z,4.50
2017-12-13T06:07:35.570Z,5.00
2017-12-13T06:09:39.863Z,4.87
2017-12-13T06:11:43.284Z,6.40
2017-12-13T06:13:47.548Z,5.10
2017-12-13T06:15:51.025Z,4.23
2017-12-13T06:17:54.538Z,5.80
2017-12-13T06:19:57.958Z,5.23
2017-12-13T06:22:01.446Z,4.87
2017-12-13T06:24:04.892Z,4.50
2017-12-13T06:26:08.333Z,4.93
2017-12-13T06:28:11.810Z,5.37
2017-12-13T06:30:15.273Z,5.10
2017-12-13T06:32:18.725Z,5.97
2017-12-13T06:34:22.977Z,5.40
2017-12-13T06:36:27.695Z,4.90
2017-12-13T06:38:32.216Z,3.60
2017-12-13T06:40:36.518Z,4.50
2017-12-13T06:42:40.008Z,5.27
2017-12-13T06:44:43.460Z,3.90
2017-12-13T06:46:46.890Z,4.47
2017-12-13T06:48:51.109Z,4.70
2017-12-13T06:50:54.597Z,5.57
2017-12-13T06:52:58.714Z,4.23
2017-12-13T06:55:02.976Z,4.50
2017-12-13T06:57:06.415Z,4.70
2017-12-13T06:59:10.615Z,4.53
2017-12-13T07:01:14.082Z,5.03
2017-12-13T07:03:17.568Z,4.40
2017-12-13T07:05:21.040Z,4.50
2017-12-13T07:07:26.487Z,5.00
2017-12-13T07:09:30.007Z,5.27
2017-12-13T07:11:33.491Z,4.80
2017-12-13T07:13:36.931Z,5.07
2017-12-13T07:15:40.491Z,5.60
2017-12-13T07:17:43.952Z,4.17
2017-12-13T07:19:48.198Z,5.23
2017-12-13T07:21:52.447Z,5.73
2017-12-13T07:23:56.670Z,5.80
2017-12-13T07:26:00.933Z,4.53
2017-12-13T07:28:04.437Z,5.30
2017-12-13T07:30:07.935Z,4.03
2017-12-13T07:32:11.360Z,4.10
2017-12-13T07:34:15.591Z,5.40
2017-12-13T07:36:19.070Z,4.60
2017-12-13T07:38:22.574Z,4.13
2017-12-13T07:40:26.045Z,4.00
2017-12-13T07:42:29.541Z,3.57
2017-12-13T07:44:32.963Z,4.07
2017-12-13T07:46:37.185Z,4.27
2017-12-13T07:48:41.411Z,5.00
2017-12-13T07:50:44.846Z,3.30
2017-12-13T07:52:48.314Z,4.10
2017-12-13T07:54:51.812Z,4.50
2017-12-13T07:56:55.259Z,4.90
2017-12-13T07:58:59.422Z,4.07
2017-12-13T08:01:02.835Z,3.90
2017-12-13T08:03:06.382Z,2.97
2017-12-13T08:05:09.926Z,3.83
2017-12-13T08:07:13.504Z,4.20
2017-12-13T08:09:16.998Z,3.83
2017-12-13T08:11:20.424Z,3.20
2017-12-13T08:13:24.664Z,4.33
2017-12-13T08:15:28.138Z,3.40
2017-12-13T08:17:32.470Z,4.20
2017-12-13T08:19:35.916Z,4.27
2017-12-13T08:21:39.441Z,3.90
2017-12-13T08:23:43.671Z,3.27
2017-12-13T08:25:47.175Z,3.50
2017-12-13T08:27:50.693Z,3.53
2017-12-13T08:29:54.108Z,3.00
2017-12-13T08:31:57.550Z,2.70
2017-12-13T08:34:01.119Z,2.97
2017-12-13T08:36:04.619Z,3.70
2017-12-13T08:38:08.869Z,3.27
2017-12-13T08:40:12.332Z,2.50
2017-12-13T08:42:16.527Z,3.27
2017-12-13T08:44:20.826Z,3.27
2017-12-13T08:46:24.290Z,3.23
2017-12-13T08:48:28.553Z,3.33
2017-12-13T08:50:32.800Z,3.03
2017-12-13T08:52:36.234Z,3.53
2017-12-13T08:54:40.551Z,3.63
2017-12-13T08:56:44.028Z,3.73
2017-12-13T08:58:47.545Z,3.50
2017-12-13T09:00:51.823Z,2.90
2017-12-13T09:02:55.312Z,3.47
2017-12-13T09:04:58.791Z,3.53
2017-12-13T09:07:02.276Z,4.00
2017-12-13T09:09:05.753Z,3.53
2017-12-13T09:11:09.264Z,3.40
2017-12-13T09:13:12.796Z,3.40
2017-12-13T09:15:16.269Z,3.80
2017-12-13T09:17:19.674Z,2.97
2017-12-13T09:19:23.155Z,3.17
2017-12-13T09:21:26.604Z,3.00
2017-12-13T09:23:30.036Z,3.40
2017-12-13T09:25:33.490Z,3.23
2017-12-13T09:27:37.686Z,2.90
2017-12-13T09:29:41.113Z,3.60
2017-12-13T09:31:45.350Z,3.17
2017-12-13T09:33:48.822Z,3.03
2017-12-13T09:35:52.264Z,2.53
2017-12-13T09:37:55.787Z,3.20
2017-12-13T09:39:59.285Z,2.83
2017-12-13T09:42:02.788Z,2.70
2017-12-13T09:44:06.202Z,2.97
2017-12-13T09:46:09.679Z,3.30
2017-12-13T09:48:13.243Z,2.90
2017-12-13T09:50:16.703Z,3.30
2017-12-13T09:52:20.220Z,3.10
2017-12-13T09:54:23.643Z,3.50
2017-12-13T09:56:27.120Z,3.30
2017-12-13T09:58:30.580Z,3.33
2017-12-13T10:00:33.997Z,3.07
2017-12-13T10:02:37.458Z,3.30
2017-12-13T10:04:40.878Z,2.53
2017-12-13T10:06:44.335Z,3.00
2017-12-13T10:08:47.771Z,3.43
2017-12-13T10:10:51.178Z,2.90
2017-12-13T10:12:54.651Z,3.10
2017-12-13T10:14:58.874Z,3.00
2017-12-13T10:17:02.352Z,3.43
2017-12-13T10:19:05.780Z,2.80
2017-12-13T10:21:09.242Z,3.10
2017-12-13T10:23:12.695Z,2.57
2017-12-13T10:25:16.103Z,3.50
2017-12-13T10:27:20.361Z,3.30
2017-12-13T10:29:23.779Z,3.20
2017-12-13T10:31:27.227Z,2.77
2017-12-13T10:33:30.682Z,2.73
2017-12-13T10:35:34.891Z,3.43
2017-12-13T10:37:39.093Z,2.90
2017-12-13T10:39:42.552Z,2.63
2017-12-13T10:41:45.992Z,2.33
2017-12-13T10:43:50.211Z,2.90
2017-12-13T10:45:54.402Z,2.53
2017-12-13T10:47:57.823Z,2.60
2017-12-13T10:50:01.295Z,2.77
2017-12-13T10:52:05.499Z,2.93
2017-12-13T10:54:08.946Z,2.97
2017-12-13T10:56:12.394Z,3.60
2017-12-13T10:58:16.608Z,3.13
2017-12-13T11:00:20.870Z,2.40
2017-12-13T11:02:24.384Z,2.30
2017-12-13T11:04:28.651Z,2.20
2017-12-13T11:06:32.100Z,2.30
2017-12-13T11:08:35.545Z,2.73
2017-12-13T11:10:39.765Z,2.73
2017-12-13T11:12:43.189Z,2.80
2017-12-13T11:14:46.687Z,2.13
2017-12-13T11:16:50.146Z,2.90
2017-12-13T11:18:54.342Z,2.50
2017-12-13T11:20:57.819Z,3.00
2017-12-13T11:23:01.278Z,3.10
2017-12-13T11:25:05.828Z,3.20
2017-12-13T11:27:12.961Z,3.10
2017-12-13T11:29:17.146Z,3.30
2017-12-13T11:31:20.603Z,3.00
2017-12-13T11:33:24.436Z,3.60
2017-12-13T11:35:28.310Z,3.40
2017-12-13T11:37:31.747Z,3.30
2017-12-13T11:39:35.242Z,3.20
2017-12-13T11:41:38.724Z,3.00
2017-12-13T11:43:42.192Z,2.93
2017-12-13T11:45:46.503Z,3.40
2017-12-13T11:47:50.820Z,2.50
2017-12-13T11:49:56.252Z,3.10
2017-12-13T11:51:59.686Z,2.80
2017-12-13T11:54:05.890Z,2.37
2017-12-13T11:56:09.373Z,3.00
2017-12-13T11:58:12.867Z,2.67
2017-12-13T12:00:16.640Z,3.03
2017-12-13T12:02:20.381Z,2.80
2017-12-13T12:04:26.000Z,2.90
2017-12-13T12:06:30.928Z,2.40
2017-12-13T12:08:34.432Z,3.03
2017-12-13T12:10:37.912Z,2.77
2017-12-13T12:12:41.361Z,2.57
2017-12-13T12:14:45.556Z,2.57
2017-12-13T12:16:49.014Z,3.10
2017-12-13T12:18:52.471Z,3.10
2017-12-13T12:20:56.676Z,2.37
2017-12-13T12:23:00.934Z,3.27
2017-12-13T12:25:05.127Z,2.77
2017-12-13T12:27:08.689Z,1.97
2017-12-13T12:29:14.166Z,2.93
2017-12-13T12:31:17.768Z,2.67
2017-12-13T12:33:21.235Z,3.57
2017-12-13T12:35:25.428Z,2.63
2017-12-13T12:37:29.712Z,2.40
2017-12-13T12:39:33.154Z,3.00
2017-12-13T12:41:37.331Z,2.80
2017-12-13T12:43:40.793Z,2.77
2017-12-13T12:45:44.252Z,3.43
2017-12-13T12:47:48.491Z,4.00
2017-12-13T12:49:51.895Z,3.77
2017-12-13T12:51:55.376Z,3.47
2017-12-13T12:53:59.015Z,3.10
2017-12-13T12:56:03.302Z,3.23
2017-12-13T12:58:06.862Z,3.20
2017-12-13T13:00:10.732Z,5.73
2017-12-13T13:02:14.323Z,6.40
2017-12-13T13:04:17.797Z,4.00
2017-12-13T13:06:22.386Z,3.87
2017-12-13T13:08:26.711Z,3.80
2017-12-13T13:10:31.132Z,3.20
2017-12-13T13:12:35.126Z,3.73
2017-12-13T13:14:39.447Z,3.50
2017-12-13T13:16:43.163Z,4.00
2017-12-13T13:18:47.775Z,4.10
2017-12-13T13:20:52.112Z,3.73
2017-12-13T13:22:55.653Z,4.27
2017-12-13T13:24:59.205Z,5.17
2017-12-13T13:27:02.669Z,4.20
2017-12-13T13:29:06.151Z,3.60
2017-12-13T13:31:09.767Z,3.50
2017-12-13T13:33:13.201Z,4.50
2017-12-13T13:35:17.055Z,3.70
2017-12-13T13:37:21.319Z,4.00
2017-12-13T13:39:25.213Z,4.00
2017-12-13T13:41:28.794Z,4.50
2017-12-13T13:43:32.319Z,3.40
2017-12-13T13:45:36.036Z,5.30
2017-12-13T13:47:39.536Z,4.03
2017-12-13T13:49:43.171Z,3.23
2017-12-13T13:51:47.310Z,3.60
2017-12-13T13:53:50.811Z,3.30
2017-12-13T13:55:54.471Z,2.77
2017-12-13T13:57:58.673Z,3.03
2017-12-13T14:00:02.244Z,2.60
2017-12-13T14:02:06.554Z,2.90
2017-12-13T14:04:10.096Z,2.90
2017-12-13T14:06:15.018Z,2.50
2017-12-13T14:08:18.556Z,2.87
2017-12-13T14:10:22.209Z,2.50
2017-12-13T14:12:26.070Z,3.00
2017-12-13T14:14:30.455Z,2.90
2017-12-13T14:16:33.911Z,2.83
2017-12-13T14:18:38.032Z,2.50
2017-12-13T14:20:42.470Z,3.57
2017-12-13T14:22:49.111Z,3.00
2017-12-13T14:24:53.131Z,3.50
2017-12-13T14:26:56.929Z,2.20
2017-12-13T14:29:00.453Z,2.90
2017-12-13T14:31:04.735Z,2.63
2017-12-13T14:33:08.209Z,2.13
2017-12-13T14:35:12.415Z,7.33
2017-12-13T14:37:16.628Z,3.00
2017-12-13T14:39:20.819Z,2.00
2017-12-13T14:41:24.238Z,1.80
2017-12-13T14:43:28.511Z,2.20
2017-12-13T14:45:31.926Z,3.50
2017-12-13T14:47:36.181Z,2.70
2017-12-13T14:49:39.737Z,1.70
2017-12-13T14:51:43.347Z,2.53
2017-12-13T14:53:46.862Z,2.43
2017-12-13T14:55:50.308Z,1.90
2017-12-13T14:57:53.935Z,2.77
2017-12-13T14:59:58.392Z,2.17
2017-12-13T15:02:02.000Z,2.53
2017-12-13T15:04:05.796Z,2.03
2017-12-13T15:06:09.393Z,1.70
2017-12-13T15:08:13.914Z,1.80
2017-12-13T15:10:17.348Z,2.30
2017-12-13T15:12:21.543Z,1.90
2017-12-13T15:14:25.256Z,2.77
2017-12-13T15:16:28.666Z,2.30
2017-12-13T15:18:33.009Z,1.70
2017-12-13T15:20:37.679Z,2.30
2017-12-13T15:22:42.072Z,1.70
2017-12-13T15:24:45.766Z,1.73
2017-12-13T15:26:49.427Z,1.57
2017-12-13T15:28:52.885Z,2.00
2017-12-13T15:30:57.238Z,2.17
2017-12-13T15:33:00.678Z,2.30
2017-12-13T15:35:04.183Z,1.70
2017-12-13T15:37:07.618Z,2.03
2017-12-13T15:39:11.212Z,2.43
2017-12-13T15:41:15.150Z,2.30
2017-12-13T15:43:19.050Z,2.27
2017-12-13T15:45:23.515Z,2.97
2017-12-13T15:47:27.861Z,5.17
2017-12-13T15:49:31.540Z,2.20
2017-12-13T15:51:35.407Z,2.73
2017-12-13T15:53:38.926Z,3.70
2017-12-13T15:55:44.182Z,3.07
2017-12-13T15:57:47.918Z,3.33
2017-12-13T15:59:52.928Z,2.73
2017-12-13T16:01:56.422Z,2.50
2017-12-13T16:03:59.939Z,2.40
2017-12-13T16:06:04.284Z,2.50
2017-12-13T16:08:08.612Z,2.10
2017-12-13T16:10:13.554Z,2.30
2017-12-13T16:12:18.405Z,1.80
2017-12-13T16:14:25.149Z,2.40
2017-12-13T16:16:30.000Z,2.20
2017-12-13T16:18:33.512Z,2.30
2017-12-13T16:20:37.084Z,2.17
2017-12-13T16:22:40.636Z,1.83
2017-12-13T16:24:44.088Z,2.00
2017-12-13T16:28:58.151Z,2.20
2017-12-13T16:31:02.409Z,2.27
2017-12-13T16:33:05.931Z,1.83
2017-12-13T16:35:10.117Z,2.33
2017-12-13T16:37:14.365Z,2.27
2017-12-13T16:39:17.851Z,1.60
2017-12-13T16:41:22.260Z,3.40
2017-12-13T16:43:25.939Z,2.60
2017-12-13T16:45:29.673Z,2.00
2017-12-13T16:47:36.998Z,2.90
2017-12-13T16:49:40.456Z,4.33
2017-12-13T16:51:43.922Z,4.03
2017-12-13T16:53:49.412Z,3.13
2017-12-13T16:55:55.570Z,5.33
2017-12-13T16:57:59.217Z,3.00
2017-12-13T17:00:02.676Z,5.43
2017-12-13T17:02:07.299Z,7.10
2017-12-13T17:04:15.721Z,3.63
2017-12-13T17:06:20.588Z,3.90
2017-12-13T17:08:25.520Z,7.83
2017-12-13T17:10:29.609Z,2.97
2017-12-13T17:12:35.112Z,4.90
2017-12-13T17:14:39.633Z,2.50
2017-12-13T17:16:45.592Z,2.40
2017-12-13T17:18:49.429Z,2.63
2017-12-13T17:20:53.008Z,2.33
2017-12-13T17:22:59.634Z,2.50
2017-12-13T17:25:04.371Z,2.70
2017-12-13T17:27:08.909Z,2.50
2017-12-13T17:29:13.289Z,2.50
2017-12-13T17:31:17.768Z,2.93
2017-12-13T17:33:22.347Z,2.90
2017-12-13T17:35:26.976Z,2.70
2017-12-13T17:37:31.443Z,2.97
2017-12-13T17:39:35.596Z,3.23
2017-12-13T17:41:39.445Z,3.10
2017-12-13T17:43:43.068Z,2.70
2017-12-13T17:45:46.646Z,2.90
2017-12-13T17:47:50.103Z,2.40
2017-12-13T17:49:53.607Z,3.10
2017-12-13T17:51:57.174Z,3.50
2017-12-13T17:54:00.746Z,3.00
2017-12-13T17:56:05.142Z,3.20
2017-12-13T17:58:08.681Z,3.17
2017-12-13T18:00:13.180Z,4.23
2017-12-13T18:02:16.743Z,3.63
2017-12-13T18:04:20.952Z,2.90
2017-12-13T18:06:25.316Z,3.13
2017-12-13T18:08:29.669Z,3.37
2017-12-13T18:10:34.843Z,3.30
2017-12-13T18:12:39.617Z,3.10
2017-12-13T18:14:43.931Z,3.40
2017-12-13T18:16:47.491Z,3.20
2017-12-13T18:18:50.946Z,3.40
2017-12-13T18:20:55.233Z,3.27
2017-12-13T18:22:59.262Z,4.00
2017-12-13T18:25:02.788Z,3.60
2017-12-13T18:27:06.365Z,3.00
2017-12-13T18:29:10.773Z,4.07
2017-12-13T18:31:15.902Z,4.37
2017-12-13T18:33:20.183Z,3.80
2017-12-13T18:35:23.649Z,4.77
2017-12-13T18:37:27.156Z,3.87
2017-12-13T18:39:30.654Z,4.90
2017-12-13T18:41:34.173Z,4.73
2017-12-13T18:43:37.619Z,5.00
2017-12-13T18:45:41.057Z,5.23
2017-12-13T18:47:45.332Z,4.30
2017-12-13T18:49:49.622Z,4.80
2017-12-13T18:51:53.218Z,5.30
2017-12-13T18:53:58.446Z,5.00
2017-12-13T18:56:02.743Z,4.60
2017-12-13T18:58:08.083Z,4.70
2017-12-13T19:00:12.471Z,4.70
2017-12-13T19:02:18.367Z,5.30
2017-12-13T19:04:21.866Z,5.63
2017-12-13T19:06:26.821Z,5.23
2017-12-13T19:08:30.892Z,4.90
2017-12-13T19:10:34.407Z,5.43
2017-12-13T19:12:39.707Z,5.13
2017-12-13T19:14:43.960Z,5.73
2017-12-13T19:16:47.779Z,4.90
2017-12-13T19:18:51.264Z,6.07
2017-12-13T19:20:55.187Z,6.67
2017-12-13T19:22:58.960Z,6.67
2017-12-13T19:25:03.412Z,6.10
2017-12-13T19:27:09.855Z,6.67
2017-12-13T19:29:14.889Z,7.53
2017-12-13T19:31:20.188Z,7.27
2017-12-13T19:33:23.684Z,5.60
2017-12-13T19:35:28.322Z,4.90
2017-12-13T19:37:34.461Z,4.77
2017-12-13T19:39:39.558Z,4.60
2017-12-13T19:41:43.164Z,5.10
2017-12-13T19:43:47.572Z,4.67
2017-12-13T19:45:52.656Z,3.80
2017-12-13T19:47:57.828Z,3.80
2017-12-13T19:50:02.740Z,4.77
2017-12-13T19:52:08.676Z,4.17
2017-12-13T19:54:14.253Z,5.00
2017-12-13T19:56:19.855Z,4.50
2017-12-13T19:58:24.881Z,3.80
2017-12-13T20:00:28.432Z,3.90
2017-12-13T20:02:31.916Z,5.10
2017-12-13T20:04:35.408Z,4.20
2017-12-13T20:06:38.886Z,3.90
2017-12-13T20:08:42.309Z,5.07
2017-12-13T20:10:45.836Z,3.97
2017-12-13T20:12:50.677Z,4.17
2017-12-13T20:15:00.354Z,4.70
2017-12-13T20:17:04.635Z,2.80
2017-12-13T20:19:09.926Z,4.03
2017-12-13T20:21:14.085Z,2.60
2017-12-13T20:23:18.284Z,4.00
2017-12-13T20:25:22.472Z,3.80
2017-12-13T20:27:25.933Z,3.00
2017-12-13T20:29:29.402Z,3.70
2017-12-13T20:31:32.903Z,3.63
2017-12-13T20:33:36.453Z,3.50
2017-12-13T20:35:39.867Z,3.27
2017-12-13T20:37:43.351Z,3.20
2017-12-13T20:39:46.860Z,3.63
2017-12-13T20:41:50.561Z,3.27
2017-12-13T20:43:54.110Z,2.60
2017-12-13T20:45:57.568Z,2.73
2017-12-13T20:48:03.498Z,2.20
2017-12-13T20:50:09.608Z,4.10
2017-12-13T20:52:15.802Z,3.63
2017-12-13T20:54:20.168Z,3.10
2017-12-13T20:56:23.574Z,3.10
2017-12-13T20:58:27.256Z,2.73
2017-12-13T21:00:31.651Z,2.33
2017-12-13T21:02:36.075Z,2.40
2017-12-13T21:04:40.639Z,2.50
2017-12-13T21:06:45.172Z,2.77
2017-12-13T21:08:49.392Z,2.77
2017-12-13T21:10:52.813Z,2.90
2017-12-13T21:12:56.282Z,1.87
2017-12-13T21:14:59.753Z,2.70
2017-12-13T21:17:03.670Z,2.40
2017-12-13T21:19:07.119Z,2.67
2017-12-13T21:21:10.601Z,2.20
2017-12-13T21:23:14.103Z,1.90
2017-12-13T21:25:17.563Z,1.40
2017-12-13T21:27:21.747Z,2.07
2017-12-13T21:29:25.198Z,1.50
2017-12-13T21:31:28.644Z,1.90
2017-12-13T21:33:32.088Z,2.33
2017-12-13T21:35:35.496Z,2.10
2017-12-13T21:37:38.911Z,1.80
2017-12-13T21:39:42.373Z,2.57
2017-12-13T21:41:45.791Z,1.80
2017-12-13T21:43:49.246Z,1.60
2017-12-13T21:45:52.666Z,1.83
2017-12-13T21:47:56.094Z,2.70
2017-12-13T21:50:00.344Z,1.53
2017-12-13T21:52:03.807Z,1.57
2017-12-13T21:54:07.268Z,1.50
2017-12-13T21:56:10.674Z,1.67
2017-12-13T21:58:14.100Z,1.60
2017-12-13T22:00:17.568Z,1.50
2017-12-13T22:02:21.012Z,1.60
2017-12-13T22:04:24.446Z,1.50
2017-12-13T22:06:27.914Z,1.70
2017-12-13T22:08:31.356Z,1.70
2017-12-13T22:10:34.879Z,1.80
2017-12-13T22:12:38.314Z,1.67
2017-12-13T22:14:41.742Z,2.67
2017-12-13T22:16:46.047Z,1.90
2017-12-13T22:18:49.482Z,1.67
2017-12-13T22:20:52.931Z,1.60
2017-12-13T22:22:56.338Z,1.53
2017-12-13T22:24:59.808Z,1.50
2017-12-13T22:27:03.250Z,1.60
2017-12-13T22:29:06.652Z,1.33
2017-12-13T22:31:10.114Z,1.87
2017-12-13T22:33:14.312Z,1.50
2017-12-13T22:35:17.800Z,1.60
2017-12-13T22:37:22.044Z,1.63
2017-12-13T22:39:25.503Z,1.60
2017-12-13T22:41:28.958Z,1.60
2017-12-13T22:43:32.417Z,1.80
2017-12-13T22:45:35.874Z,1.77
2017-12-13T22:47:39.386Z,1.70
2017-12-13T22:49:42.807Z,1.70
2017-12-13T22:51:47.065Z,1.60
2017-12-13T22:53:50.525Z,2.20
2017-12-13T22:55:54.014Z,1.30
2017-12-13T22:57:57.654Z,1.60
2017-12-13T23:00:01.562Z,1.60
2017-12-13T23:02:05.532Z,1.60
2017-12-13T23:04:09.119Z,1.70
2017-12-13T23:06:12.530Z,1.70
2017-12-13T23:08:16.753Z,1.80
2017-12-13T23:10:20.188Z,1.30
2017-12-13T23:12:23.638Z,1.47
2017-12-13T23:14:27.076Z,1.37
2017-12-13T23:16:31.279Z,1.50
2017-12-13T23:18:35.611Z,1.50
2017-12-13T23:20:40.209Z,1.57
2017-12-13T23:22:44.464Z,1.93
2017-12-13T23:24:48.675Z,1.70
2017-12-13T23:26:52.212Z,1.43
2017-12-13T23:28:56.645Z,1.60
2017-12-13T23:31:00.092Z,1.77
2017-12-13T23:33:03.601Z,1.87
2017-12-13T23:35:07.100Z,1.80
2017-12-13T23:37:10.609Z,1.40
2017-12-13T23:39:14.067Z,1.87
2017-12-13T23:41:18.379Z,2.10
2017-12-13T23:43:21.859Z,1.50
2017-12-13T23:45:25.289Z,1.60
2017-12-13T23:47:28.967Z,2.00
2017-12-13T23:49:32.819Z,1.50
2017-12-13T23:51:38.051Z,1.80
2017-12-13T23:53:41.990Z,1.60
2017-12-13T23:55:46.189Z,1.40
2017-12-13T23:57:49.604Z,1.40
2017-12-13T23:59:53.522Z,1.40
